<?xml version="1.0" encoding="UTF-8" standalone="no" ?>
<gpx xmlns="http://www.topografix.com/GPX/1/1" xmlns:xsi="http://www.w3.org/2001/XMLSchema-instance" xsi:schemaLocation="http://www.topografix.com/GPX/1/1 http://www.topografix.com/GPX/1/1/gpx.xsd" version="1.1" creator="VisuGPX - https://www.visugpx.com">
  <metadata>
    <name>Signal de Bassia 2020-02-19 09:51:27</name>
    <desc><![CDATA[File with points/tracks from Locus Map/3.43.1]]></desc>
  </metadata>
  <wpt lat="42.96282" lon="0.30925">
    <ele>1413</ele>
    <name><![CDATA[Point 1]]></name>
  </wpt>
  <trk>
    <name><![CDATA[Siga de Bassias 2020-02-19 09:51:27]]></name>
    <extensions>
      <line xmlns="http://www.topografix.com/GPX/gpx_style/0/2">
        <color>0000FF</color>
        <opacity>0.59</opacity>
        <width>6.0</width>
      </line>
    </extensions>
    <trkseg>
      <trkpt lat="42.96279" lon="0.30925">
        <ele>1410.86</ele>
        <time>2020-02-19T09:00:46.000Z</time>
      </trkpt>
      <trkpt lat="42.96282" lon="0.30925">
        <ele>1412.56</ele>
        <time>2020-02-19T09:01:37.000Z</time>
      </trkpt>
      <trkpt lat="42.96291" lon="0.30922">
        <ele>1414.56</ele>
        <time>2020-02-19T09:06:05.000Z</time>
      </trkpt>
      <trkpt lat="42.96314" lon="0.30916">
        <ele>1418.51</ele>
        <time>2020-02-19T09:06:35.000Z</time>
      </trkpt>
      <trkpt lat="42.96332" lon="0.30934">
        <ele>1421.33</ele>
        <time>2020-02-19T09:07:05.000Z</time>
      </trkpt>
      <trkpt lat="42.96351" lon="0.30955">
        <ele>1423.56</ele>
        <time>2020-02-19T09:07:35.000Z</time>
      </trkpt>
      <trkpt lat="42.96368" lon="0.3098">
        <ele>1426.31</ele>
        <time>2020-02-19T09:08:05.000Z</time>
      </trkpt>
      <trkpt lat="42.96386" lon="0.30992">
        <ele>1431.37</ele>
        <time>2020-02-19T09:08:35.000Z</time>
      </trkpt>
      <trkpt lat="42.96408" lon="0.31007">
        <ele>1431.53</ele>
        <time>2020-02-19T09:09:05.000Z</time>
      </trkpt>
      <trkpt lat="42.96429" lon="0.3102">
        <ele>1436.31</ele>
        <time>2020-02-19T09:09:35.000Z</time>
      </trkpt>
      <trkpt lat="42.96448" lon="0.31026">
        <ele>1440.54</ele>
        <time>2020-02-19T09:10:05.000Z</time>
      </trkpt>
      <trkpt lat="42.96471" lon="0.31027">
        <ele>1443.36</ele>
        <time>2020-02-19T09:10:35.000Z</time>
      </trkpt>
      <trkpt lat="42.96476" lon="0.30998">
        <ele>1445.81</ele>
        <time>2020-02-19T09:11:05.000Z</time>
      </trkpt>
      <trkpt lat="42.96485" lon="0.3098">
        <ele>1451.49</ele>
        <time>2020-02-19T09:11:35.000Z</time>
      </trkpt>
      <trkpt lat="42.96501" lon="0.30967">
        <ele>1452.83</ele>
        <time>2020-02-19T09:12:05.000Z</time>
      </trkpt>
      <trkpt lat="42.96506" lon="0.30956">
        <ele>1456.38</ele>
        <time>2020-02-19T09:12:38.000Z</time>
      </trkpt>
      <trkpt lat="42.96523" lon="0.30947">
        <ele>1459.31</ele>
        <time>2020-02-19T09:13:08.000Z</time>
      </trkpt>
      <trkpt lat="42.96547" lon="0.30927">
        <ele>1463.57</ele>
        <time>2020-02-19T09:13:38.000Z</time>
      </trkpt>
      <trkpt lat="42.96564" lon="0.30912">
        <ele>1466.32</ele>
        <time>2020-02-19T09:14:08.000Z</time>
      </trkpt>
      <trkpt lat="42.96594" lon="0.30893">
        <ele>1474.99</ele>
        <time>2020-02-19T09:14:38.000Z</time>
      </trkpt>
      <trkpt lat="42.96623" lon="0.30884">
        <ele>1471.58</ele>
        <time>2020-02-19T09:15:08.000Z</time>
      </trkpt>
      <trkpt lat="42.96654" lon="0.30866">
        <ele>1473.54</ele>
        <time>2020-02-19T09:15:38.000Z</time>
      </trkpt>
      <trkpt lat="42.96678" lon="0.30851">
        <ele>1480.29</ele>
        <time>2020-02-19T09:16:08.000Z</time>
      </trkpt>
      <trkpt lat="42.96695" lon="0.30832">
        <ele>1485.27</ele>
        <time>2020-02-19T09:16:38.000Z</time>
      </trkpt>
      <trkpt lat="42.96716" lon="0.30807">
        <ele>1483.58</ele>
        <time>2020-02-19T09:17:08.000Z</time>
      </trkpt>
      <trkpt lat="42.96729" lon="0.30785">
        <ele>1490.59</ele>
        <time>2020-02-19T09:17:38.000Z</time>
      </trkpt>
      <trkpt lat="42.96734" lon="0.30773">
        <ele>1487.82</ele>
        <time>2020-02-19T09:20:19.000Z</time>
      </trkpt>
      <trkpt lat="42.96748" lon="0.30767">
        <ele>1491.58</ele>
        <time>2020-02-19T09:20:49.000Z</time>
      </trkpt>
      <trkpt lat="42.96792" lon="0.30756">
        <ele>1495.75</ele>
        <time>2020-02-19T09:21:19.000Z</time>
      </trkpt>
      <trkpt lat="42.96816" lon="0.30744">
        <ele>1495.26</ele>
        <time>2020-02-19T09:21:49.000Z</time>
      </trkpt>
      <trkpt lat="42.96846" lon="0.3073">
        <ele>1503.62</ele>
        <time>2020-02-19T09:22:19.000Z</time>
      </trkpt>
      <trkpt lat="42.96869" lon="0.30715">
        <ele>1501.6</ele>
        <time>2020-02-19T09:22:49.000Z</time>
      </trkpt>
      <trkpt lat="42.96889" lon="0.30696">
        <ele>1509.06</ele>
        <time>2020-02-19T09:23:19.000Z</time>
      </trkpt>
      <trkpt lat="42.96909" lon="0.30685">
        <ele>1513.3</ele>
        <time>2020-02-19T09:23:49.000Z</time>
      </trkpt>
      <trkpt lat="42.9692" lon="0.30675">
        <ele>1512.65</ele>
        <time>2020-02-19T09:24:19.000Z</time>
      </trkpt>
      <trkpt lat="42.96934" lon="0.30677">
        <ele>1509.52</ele>
        <time>2020-02-19T09:24:49.000Z</time>
      </trkpt>
      <trkpt lat="42.96943" lon="0.30678">
        <ele>1516.58</ele>
        <time>2020-02-19T09:25:27.000Z</time>
      </trkpt>
      <trkpt lat="42.96961" lon="0.30679">
        <ele>1524.58</ele>
        <time>2020-02-19T09:25:57.000Z</time>
      </trkpt>
      <trkpt lat="42.96968" lon="0.3067">
        <ele>1519.97</ele>
        <time>2020-02-19T09:26:36.000Z</time>
      </trkpt>
      <trkpt lat="42.96981" lon="0.30676">
        <ele>1529.39</ele>
        <time>2020-02-19T09:27:06.000Z</time>
      </trkpt>
      <trkpt lat="42.9699" lon="0.30672">
        <ele>1532.34</ele>
        <time>2020-02-19T09:27:51.000Z</time>
      </trkpt>
      <trkpt lat="42.97009" lon="0.30674">
        <ele>1539.12</ele>
        <time>2020-02-19T09:28:21.000Z</time>
      </trkpt>
      <trkpt lat="42.97017" lon="0.30681">
        <ele>1545.34</ele>
        <time>2020-02-19T09:28:52.000Z</time>
      </trkpt>
      <trkpt lat="42.97027" lon="0.30681">
        <ele>1546.59</ele>
        <time>2020-02-19T09:29:24.000Z</time>
      </trkpt>
      <trkpt lat="42.97041" lon="0.30682">
        <ele>1546.61</ele>
        <time>2020-02-19T09:29:54.000Z</time>
      </trkpt>
      <trkpt lat="42.9705" lon="0.30679">
        <ele>1549.53</ele>
        <time>2020-02-19T09:30:36.000Z</time>
      </trkpt>
      <trkpt lat="42.97064" lon="0.30686">
        <ele>1549.07</ele>
        <time>2020-02-19T09:31:06.000Z</time>
      </trkpt>
      <trkpt lat="42.97083" lon="0.30692">
        <ele>1554.51</ele>
        <time>2020-02-19T09:31:36.000Z</time>
      </trkpt>
      <trkpt lat="42.97095" lon="0.30682">
        <ele>1560.34</ele>
        <time>2020-02-19T09:32:06.000Z</time>
      </trkpt>
      <trkpt lat="42.97111" lon="0.30678">
        <ele>1553.65</ele>
        <time>2020-02-19T09:32:36.000Z</time>
      </trkpt>
      <trkpt lat="42.97126" lon="0.30682">
        <ele>1563.67</ele>
        <time>2020-02-19T09:33:06.000Z</time>
      </trkpt>
      <trkpt lat="42.97139" lon="0.30682">
        <ele>1559.84</ele>
        <time>2020-02-19T09:33:36.000Z</time>
      </trkpt>
      <trkpt lat="42.97151" lon="0.30678">
        <ele>1562.59</ele>
        <time>2020-02-19T09:34:06.000Z</time>
      </trkpt>
      <trkpt lat="42.9716" lon="0.30673">
        <ele>1567.48</ele>
        <time>2020-02-19T09:36:31.000Z</time>
      </trkpt>
      <trkpt lat="42.97169" lon="0.30671">
        <ele>1566.59</ele>
        <time>2020-02-19T09:37:01.000Z</time>
      </trkpt>
      <trkpt lat="42.97178" lon="0.30668">
        <ele>1565.08</ele>
        <time>2020-02-19T09:37:35.000Z</time>
      </trkpt>
      <trkpt lat="42.97194" lon="0.30659">
        <ele>1568.59</ele>
        <time>2020-02-19T09:38:05.000Z</time>
      </trkpt>
      <trkpt lat="42.9721" lon="0.30662">
        <ele>1572.78</ele>
        <time>2020-02-19T09:38:35.000Z</time>
      </trkpt>
      <trkpt lat="42.97222" lon="0.3065">
        <ele>1575.59</ele>
        <time>2020-02-19T09:39:05.000Z</time>
      </trkpt>
      <trkpt lat="42.97237" lon="0.3063">
        <ele>1587.56</ele>
        <time>2020-02-19T09:39:35.000Z</time>
      </trkpt>
      <trkpt lat="42.97247" lon="0.30623">
        <ele>1596.35</ele>
        <time>2020-02-19T09:40:06.000Z</time>
      </trkpt>
      <trkpt lat="42.97257" lon="0.30612">
        <ele>1596.66</ele>
        <time>2020-02-19T09:40:36.000Z</time>
      </trkpt>
      <trkpt lat="42.97267" lon="0.30611">
        <ele>1600.78</ele>
        <time>2020-02-19T09:41:06.000Z</time>
      </trkpt>
      <trkpt lat="42.97277" lon="0.30624">
        <ele>1602.66</ele>
        <time>2020-02-19T09:41:36.000Z</time>
      </trkpt>
      <trkpt lat="42.97282" lon="0.30634">
        <ele>1605.86</ele>
        <time>2020-02-19T09:42:09.000Z</time>
      </trkpt>
      <trkpt lat="42.97293" lon="0.30639">
        <ele>1607.85</ele>
        <time>2020-02-19T09:42:39.000Z</time>
      </trkpt>
      <trkpt lat="42.9731" lon="0.30632">
        <ele>1608.34</ele>
        <time>2020-02-19T09:43:09.000Z</time>
      </trkpt>
      <trkpt lat="42.97319" lon="0.30627">
        <ele>1621.84</ele>
        <time>2020-02-19T09:43:44.000Z</time>
      </trkpt>
      <trkpt lat="42.97328" lon="0.30622">
        <ele>1623.85</ele>
        <time>2020-02-19T09:44:14.000Z</time>
      </trkpt>
      <trkpt lat="42.97337" lon="0.30612">
        <ele>1623.55</ele>
        <time>2020-02-19T09:44:44.000Z</time>
      </trkpt>
      <trkpt lat="42.97344" lon="0.30603">
        <ele>1627.65</ele>
        <time>2020-02-19T09:45:14.000Z</time>
      </trkpt>
      <trkpt lat="42.97348" lon="0.30591">
        <ele>1636.35</ele>
        <time>2020-02-19T09:45:55.000Z</time>
      </trkpt>
      <trkpt lat="42.97356" lon="0.30581">
        <ele>1642.27</ele>
        <time>2020-02-19T09:46:25.000Z</time>
      </trkpt>
      <trkpt lat="42.97362" lon="0.30569">
        <ele>1647.6</ele>
        <time>2020-02-19T09:46:55.000Z</time>
      </trkpt>
      <trkpt lat="42.97364" lon="0.30555">
        <ele>1651.6</ele>
        <time>2020-02-19T09:47:25.000Z</time>
      </trkpt>
      <trkpt lat="42.97362" lon="0.30542">
        <ele>1642.87</ele>
        <time>2020-02-19T09:49:49.000Z</time>
      </trkpt>
      <trkpt lat="42.97356" lon="0.30529">
        <ele>1654.33</ele>
        <time>2020-02-19T09:51:21.000Z</time>
      </trkpt>
      <trkpt lat="42.97354" lon="0.30517">
        <ele>1659.34</ele>
        <time>2020-02-19T09:51:58.000Z</time>
      </trkpt>
      <trkpt lat="42.97356" lon="0.30505">
        <ele>1666.08</ele>
        <time>2020-02-19T09:54:09.000Z</time>
      </trkpt>
      <trkpt lat="42.9736" lon="0.30491">
        <ele>1666.6</ele>
        <time>2020-02-19T09:54:39.000Z</time>
      </trkpt>
      <trkpt lat="42.97364" lon="0.30473">
        <ele>1668.35</ele>
        <time>2020-02-19T09:55:09.000Z</time>
      </trkpt>
      <trkpt lat="42.97359" lon="0.30442">
        <ele>1670.64</ele>
        <time>2020-02-19T09:55:39.000Z</time>
      </trkpt>
      <trkpt lat="42.97355" lon="0.30427">
        <ele>1674.53</ele>
        <time>2020-02-19T09:56:09.000Z</time>
      </trkpt>
      <trkpt lat="42.97349" lon="0.30416">
        <ele>1673.6</ele>
        <time>2020-02-19T09:57:06.000Z</time>
      </trkpt>
      <trkpt lat="42.9734" lon="0.30398">
        <ele>1675.6</ele>
        <time>2020-02-19T09:57:36.000Z</time>
      </trkpt>
      <trkpt lat="42.97334" lon="0.30387">
        <ele>1678.1</ele>
        <time>2020-02-19T09:59:42.000Z</time>
      </trkpt>
      <trkpt lat="42.97334" lon="0.30373">
        <ele>1686.41</ele>
        <time>2020-02-19T10:00:30.000Z</time>
      </trkpt>
      <trkpt lat="42.97333" lon="0.30361">
        <ele>1690.66</ele>
        <time>2020-02-19T10:01:14.000Z</time>
      </trkpt>
      <trkpt lat="42.97337" lon="0.30339">
        <ele>1696.6</ele>
        <time>2020-02-19T10:01:44.000Z</time>
      </trkpt>
      <trkpt lat="42.97346" lon="0.3034">
        <ele>1706.85</ele>
        <time>2020-02-19T10:02:55.000Z</time>
      </trkpt>
      <trkpt lat="42.97357" lon="0.30343">
        <ele>1714.54</ele>
        <time>2020-02-19T10:03:25.000Z</time>
      </trkpt>
      <trkpt lat="42.97362" lon="0.30332">
        <ele>1719.55</ele>
        <time>2020-02-19T10:04:22.000Z</time>
      </trkpt>
      <trkpt lat="42.9737" lon="0.30323">
        <ele>1719.08</ele>
        <time>2020-02-19T10:04:52.000Z</time>
      </trkpt>
      <trkpt lat="42.97364" lon="0.30293">
        <ele>1726.24</ele>
        <time>2020-02-19T10:05:22.000Z</time>
      </trkpt>
      <trkpt lat="42.97368" lon="0.30282">
        <ele>1724.72</ele>
        <time>2020-02-19T10:05:57.000Z</time>
      </trkpt>
      <trkpt lat="42.97368" lon="0.30263">
        <ele>1725.85</ele>
        <time>2020-02-19T10:06:27.000Z</time>
      </trkpt>
      <trkpt lat="42.97372" lon="0.30252">
        <ele>1730.91</ele>
        <time>2020-02-19T10:08:33.000Z</time>
      </trkpt>
      <trkpt lat="42.97376" lon="0.3024">
        <ele>1729.6</ele>
        <time>2020-02-19T10:09:05.000Z</time>
      </trkpt>
      <trkpt lat="42.97378" lon="0.30227">
        <ele>1734.65</ele>
        <time>2020-02-19T10:09:35.000Z</time>
      </trkpt>
      <trkpt lat="42.97391" lon="0.30208">
        <ele>1738.04</ele>
        <time>2020-02-19T10:10:05.000Z</time>
      </trkpt>
      <trkpt lat="42.97405" lon="0.30196">
        <ele>1745.65</ele>
        <time>2020-02-19T10:10:35.000Z</time>
      </trkpt>
      <trkpt lat="42.9742" lon="0.30178">
        <ele>1741.54</ele>
        <time>2020-02-19T10:11:05.000Z</time>
      </trkpt>
      <trkpt lat="42.97428" lon="0.30171">
        <ele>1752.29</ele>
        <time>2020-02-19T10:11:50.000Z</time>
      </trkpt>
      <trkpt lat="42.97437" lon="0.30173">
        <ele>1754.62</ele>
        <time>2020-02-19T10:12:23.000Z</time>
      </trkpt>
      <trkpt lat="42.97447" lon="0.30171">
        <ele>1764.32</ele>
        <time>2020-02-19T10:14:54.000Z</time>
      </trkpt>
      <trkpt lat="42.97457" lon="0.30157">
        <ele>1768.59</ele>
        <time>2020-02-19T10:15:24.000Z</time>
      </trkpt>
      <trkpt lat="42.97464" lon="0.30149">
        <ele>1772.6</ele>
        <time>2020-02-19T10:15:56.000Z</time>
      </trkpt>
      <trkpt lat="42.97474" lon="0.30144">
        <ele>1775.31</ele>
        <time>2020-02-19T10:16:27.000Z</time>
      </trkpt>
      <trkpt lat="42.97484" lon="0.30134">
        <ele>1775.87</ele>
        <time>2020-02-19T10:16:57.000Z</time>
      </trkpt>
      <trkpt lat="42.9749" lon="0.30123">
        <ele>1780.61</ele>
        <time>2020-02-19T10:17:29.000Z</time>
      </trkpt>
      <trkpt lat="42.97495" lon="0.30113">
        <ele>1785.6</ele>
        <time>2020-02-19T10:18:17.000Z</time>
      </trkpt>
      <trkpt lat="42.97501" lon="0.30091">
        <ele>1792.28</ele>
        <time>2020-02-19T10:18:47.000Z</time>
      </trkpt>
      <trkpt lat="42.97507" lon="0.30078">
        <ele>1794.65</ele>
        <time>2020-02-19T10:19:17.000Z</time>
      </trkpt>
      <trkpt lat="42.97509" lon="0.30066">
        <ele>1795.86</ele>
        <time>2020-02-19T10:20:20.000Z</time>
      </trkpt>
      <trkpt lat="42.97512" lon="0.30051">
        <ele>1802.12</ele>
        <time>2020-02-19T10:20:50.000Z</time>
      </trkpt>
      <trkpt lat="42.97518" lon="0.30036">
        <ele>1803.61</ele>
        <time>2020-02-19T10:21:20.000Z</time>
      </trkpt>
      <trkpt lat="42.97523" lon="0.30025">
        <ele>1809.59</ele>
        <time>2020-02-19T10:22:09.000Z</time>
      </trkpt>
      <trkpt lat="42.97525" lon="0.30012">
        <ele>1817.61</ele>
        <time>2020-02-19T10:23:48.000Z</time>
      </trkpt>
      <trkpt lat="42.97531" lon="0.30003">
        <ele>1825.6</ele>
        <time>2020-02-19T10:24:18.000Z</time>
      </trkpt>
      <trkpt lat="42.9754" lon="0.29996">
        <ele>1826.66</ele>
        <time>2020-02-19T10:29:09.000Z</time>
      </trkpt>
      <trkpt lat="42.97554" lon="0.30027">
        <ele>1827.1</ele>
        <time>2020-02-19T10:29:39.000Z</time>
      </trkpt>
      <trkpt lat="42.97561" lon="0.30049">
        <ele>1832.67</ele>
        <time>2020-02-19T10:30:09.000Z</time>
      </trkpt>
      <trkpt lat="42.97569" lon="0.30062">
        <ele>1835.61</ele>
        <time>2020-02-19T10:30:39.000Z</time>
      </trkpt>
      <trkpt lat="42.97574" lon="0.30086">
        <ele>1838.55</ele>
        <time>2020-02-19T10:31:09.000Z</time>
      </trkpt>
      <trkpt lat="42.97577" lon="0.30105">
        <ele>1841.84</ele>
        <time>2020-02-19T10:31:39.000Z</time>
      </trkpt>
      <trkpt lat="42.97585" lon="0.30117">
        <ele>1844.61</ele>
        <time>2020-02-19T10:32:09.000Z</time>
      </trkpt>
      <trkpt lat="42.9759" lon="0.30128">
        <ele>1848.36</ele>
        <time>2020-02-19T10:32:39.000Z</time>
      </trkpt>
      <trkpt lat="42.97599" lon="0.3014">
        <ele>1853.36</ele>
        <time>2020-02-19T10:33:09.000Z</time>
      </trkpt>
      <trkpt lat="42.97607" lon="0.30154">
        <ele>1854.61</ele>
        <time>2020-02-19T10:33:39.000Z</time>
      </trkpt>
      <trkpt lat="42.97612" lon="0.30177">
        <ele>1860.6</ele>
        <time>2020-02-19T10:34:09.000Z</time>
      </trkpt>
      <trkpt lat="42.9762" lon="0.30194">
        <ele>1865.42</ele>
        <time>2020-02-19T10:34:39.000Z</time>
      </trkpt>
      <trkpt lat="42.97625" lon="0.30206">
        <ele>1866.62</ele>
        <time>2020-02-19T10:36:39.000Z</time>
      </trkpt>
      <trkpt lat="42.97639" lon="0.30219">
        <ele>1870.55</ele>
        <time>2020-02-19T10:37:09.000Z</time>
      </trkpt>
      <trkpt lat="42.97651" lon="0.3022">
        <ele>1874.55</ele>
        <time>2020-02-19T10:37:39.000Z</time>
      </trkpt>
      <trkpt lat="42.97662" lon="0.30225">
        <ele>1875.6</ele>
        <time>2020-02-19T10:38:09.000Z</time>
      </trkpt>
      <trkpt lat="42.97671" lon="0.30234">
        <ele>1880.61</ele>
        <time>2020-02-19T10:38:39.000Z</time>
      </trkpt>
      <trkpt lat="42.97676" lon="0.30245">
        <ele>1882.67</ele>
        <time>2020-02-19T10:40:14.000Z</time>
      </trkpt>
      <trkpt lat="42.97688" lon="0.30267">
        <ele>1889.6</ele>
        <time>2020-02-19T10:40:44.000Z</time>
      </trkpt>
      <trkpt lat="42.97694" lon="0.30277">
        <ele>1892.61</ele>
        <time>2020-02-19T10:41:14.000Z</time>
      </trkpt>
      <trkpt lat="42.97697" lon="0.30288">
        <ele>1894.68</ele>
        <time>2020-02-19T10:41:46.000Z</time>
      </trkpt>
      <trkpt lat="42.97705" lon="0.303">
        <ele>1899.36</ele>
        <time>2020-02-19T10:42:16.000Z</time>
      </trkpt>
      <trkpt lat="42.97704" lon="0.30313">
        <ele>1903.61</ele>
        <time>2020-02-19T10:42:46.000Z</time>
      </trkpt>
      <trkpt lat="42.97705" lon="0.30325">
        <ele>1905.8</ele>
        <time>2020-02-19T10:43:32.000Z</time>
      </trkpt>
      <trkpt lat="42.97708" lon="0.30345">
        <ele>1913.61</ele>
        <time>2020-02-19T10:44:02.000Z</time>
      </trkpt>
      <trkpt lat="42.97708" lon="0.30358">
        <ele>1912.63</ele>
        <time>2020-02-19T10:44:32.000Z</time>
      </trkpt>
      <trkpt lat="42.9771" lon="0.30373">
        <ele>1916.55</ele>
        <time>2020-02-19T10:45:02.000Z</time>
      </trkpt>
      <trkpt lat="42.97715" lon="0.30395">
        <ele>1918.81</ele>
        <time>2020-02-19T10:45:32.000Z</time>
      </trkpt>
      <trkpt lat="42.97718" lon="0.30409">
        <ele>1921.61</ele>
        <time>2020-02-19T10:46:02.000Z</time>
      </trkpt>
      <trkpt lat="42.97718" lon="0.30422">
        <ele>1920.43</ele>
        <time>2020-02-19T10:49:32.000Z</time>
      </trkpt>
      <trkpt lat="42.97719" lon="0.30449">
        <ele>1915.85</ele>
        <time>2020-02-19T10:50:02.000Z</time>
      </trkpt>
      <trkpt lat="42.97715" lon="0.30469">
        <ele>1918.56</ele>
        <time>2020-02-19T10:50:32.000Z</time>
      </trkpt>
      <trkpt lat="42.97712" lon="0.30504">
        <ele>1914.63</ele>
        <time>2020-02-19T10:51:02.000Z</time>
      </trkpt>
      <trkpt lat="42.97708" lon="0.30541">
        <ele>1919.16</ele>
        <time>2020-02-19T10:51:32.000Z</time>
      </trkpt>
      <trkpt lat="42.97708" lon="0.30574">
        <ele>1915.61</ele>
        <time>2020-02-19T10:52:02.000Z</time>
      </trkpt>
      <trkpt lat="42.97706" lon="0.30586">
        <ele>1918.3</ele>
        <time>2020-02-19T10:53:33.000Z</time>
      </trkpt>
      <trkpt lat="42.97708" lon="0.30572">
        <ele>1916.61</ele>
        <time>2020-02-19T11:00:37.000Z</time>
      </trkpt>
      <trkpt lat="42.97709" lon="0.30553">
        <ele>1915.61</ele>
        <time>2020-02-19T11:01:07.000Z</time>
      </trkpt>
      <trkpt lat="42.97709" lon="0.30515">
        <ele>1916.57</ele>
        <time>2020-02-19T11:01:37.000Z</time>
      </trkpt>
      <trkpt lat="42.97712" lon="0.30481">
        <ele>1918.55</ele>
        <time>2020-02-19T11:02:07.000Z</time>
      </trkpt>
      <trkpt lat="42.97713" lon="0.30451">
        <ele>1915.87</ele>
        <time>2020-02-19T11:02:37.000Z</time>
      </trkpt>
      <trkpt lat="42.97719" lon="0.30428">
        <ele>1917.61</ele>
        <time>2020-02-19T11:03:07.000Z</time>
      </trkpt>
      <trkpt lat="42.97715" lon="0.30416">
        <ele>1919.61</ele>
        <time>2020-02-19T11:04:02.000Z</time>
      </trkpt>
      <trkpt lat="42.97711" lon="0.30396">
        <ele>1921.61</ele>
        <time>2020-02-19T11:04:32.000Z</time>
      </trkpt>
      <trkpt lat="42.97709" lon="0.30384">
        <ele>1917.95</ele>
        <time>2020-02-19T11:05:20.000Z</time>
      </trkpt>
      <trkpt lat="42.97709" lon="0.3037">
        <ele>1917.61</ele>
        <time>2020-02-19T11:06:19.000Z</time>
      </trkpt>
      <trkpt lat="42.97709" lon="0.30357">
        <ele>1913.85</ele>
        <time>2020-02-19T11:06:57.000Z</time>
      </trkpt>
      <trkpt lat="42.97705" lon="0.30346">
        <ele>1909.62</ele>
        <time>2020-02-19T11:07:32.000Z</time>
      </trkpt>
      <trkpt lat="42.97695" lon="0.30325">
        <ele>1903.86</ele>
        <time>2020-02-19T11:08:02.000Z</time>
      </trkpt>
      <trkpt lat="42.9769" lon="0.30303">
        <ele>1897.88</ele>
        <time>2020-02-19T11:08:32.000Z</time>
      </trkpt>
      <trkpt lat="42.97685" lon="0.30278">
        <ele>1890.61</ele>
        <time>2020-02-19T11:09:02.000Z</time>
      </trkpt>
      <trkpt lat="42.97681" lon="0.30256">
        <ele>1885.62</ele>
        <time>2020-02-19T11:09:32.000Z</time>
      </trkpt>
      <trkpt lat="42.97676" lon="0.30238">
        <ele>1879.61</ele>
        <time>2020-02-19T11:10:02.000Z</time>
      </trkpt>
      <trkpt lat="42.97667" lon="0.30222">
        <ele>1873.8</ele>
        <time>2020-02-19T11:10:32.000Z</time>
      </trkpt>
      <trkpt lat="42.97651" lon="0.30206">
        <ele>1867.63</ele>
        <time>2020-02-19T11:11:02.000Z</time>
      </trkpt>
      <trkpt lat="42.9764" lon="0.30193">
        <ele>1862.81</ele>
        <time>2020-02-19T11:11:32.000Z</time>
      </trkpt>
      <trkpt lat="42.97632" lon="0.30173">
        <ele>1856.67</ele>
        <time>2020-02-19T11:12:02.000Z</time>
      </trkpt>
      <trkpt lat="42.97621" lon="0.3015">
        <ele>1852.61</ele>
        <time>2020-02-19T11:12:32.000Z</time>
      </trkpt>
      <trkpt lat="42.97609" lon="0.3013">
        <ele>1848.59</ele>
        <time>2020-02-19T11:13:02.000Z</time>
      </trkpt>
      <trkpt lat="42.97609" lon="0.30117">
        <ele>1844.65</ele>
        <time>2020-02-19T11:15:41.000Z</time>
      </trkpt>
      <trkpt lat="42.97612" lon="0.30116">
        <ele>1841.86</ele>
        <time>2020-02-19T11:16:17.000Z</time>
      </trkpt>
      <trkpt lat="42.97606" lon="0.30107">
        <ele>1843.61</ele>
        <time>2020-02-19T12:13:53.000Z</time>
      </trkpt>
      <trkpt lat="42.97596" lon="0.3009">
        <ele>1837.66</ele>
        <time>2020-02-19T12:14:23.000Z</time>
      </trkpt>
      <trkpt lat="42.9758" lon="0.30069">
        <ele>1832.61</ele>
        <time>2020-02-19T12:14:53.000Z</time>
      </trkpt>
      <trkpt lat="42.97565" lon="0.30053">
        <ele>1827.61</ele>
        <time>2020-02-19T12:15:23.000Z</time>
      </trkpt>
      <trkpt lat="42.97545" lon="0.3004">
        <ele>1822.92</ele>
        <time>2020-02-19T12:15:53.000Z</time>
      </trkpt>
      <trkpt lat="42.97543" lon="0.30013">
        <ele>1822.59</ele>
        <time>2020-02-19T12:16:23.000Z</time>
      </trkpt>
      <trkpt lat="42.97536" lon="0.29981">
        <ele>1823.61</ele>
        <time>2020-02-19T12:16:53.000Z</time>
      </trkpt>
      <trkpt lat="42.97527" lon="0.29953">
        <ele>1826.61</ele>
        <time>2020-02-19T12:17:23.000Z</time>
      </trkpt>
      <trkpt lat="42.97523" lon="0.29923">
        <ele>1829.61</ele>
        <time>2020-02-19T12:17:53.000Z</time>
      </trkpt>
      <trkpt lat="42.97516" lon="0.29893">
        <ele>1834.59</ele>
        <time>2020-02-19T12:18:23.000Z</time>
      </trkpt>
      <trkpt lat="42.97512" lon="0.29874">
        <ele>1837.61</ele>
        <time>2020-02-19T12:18:53.000Z</time>
      </trkpt>
      <trkpt lat="42.97512" lon="0.29842">
        <ele>1841.36</ele>
        <time>2020-02-19T12:19:23.000Z</time>
      </trkpt>
      <trkpt lat="42.9751" lon="0.29825">
        <ele>1844.4</ele>
        <time>2020-02-19T12:19:53.000Z</time>
      </trkpt>
      <trkpt lat="42.97509" lon="0.29802">
        <ele>1846.61</ele>
        <time>2020-02-19T12:20:23.000Z</time>
      </trkpt>
      <trkpt lat="42.97508" lon="0.29789">
        <ele>1846.54</ele>
        <time>2020-02-19T12:20:54.000Z</time>
      </trkpt>
      <trkpt lat="42.97509" lon="0.29766">
        <ele>1848.67</ele>
        <time>2020-02-19T12:21:24.000Z</time>
      </trkpt>
      <trkpt lat="42.97509" lon="0.29741">
        <ele>1853.54</ele>
        <time>2020-02-19T12:21:54.000Z</time>
      </trkpt>
      <trkpt lat="42.97507" lon="0.29704">
        <ele>1857.61</ele>
        <time>2020-02-19T12:22:24.000Z</time>
      </trkpt>
      <trkpt lat="42.97498" lon="0.29675">
        <ele>1857.67</ele>
        <time>2020-02-19T12:22:54.000Z</time>
      </trkpt>
      <trkpt lat="42.97498" lon="0.29659">
        <ele>1861.61</ele>
        <time>2020-02-19T12:23:24.000Z</time>
      </trkpt>
      <trkpt lat="42.97495" lon="0.29634">
        <ele>1863.8</ele>
        <time>2020-02-19T12:23:54.000Z</time>
      </trkpt>
      <trkpt lat="42.9749" lon="0.29614">
        <ele>1862.86</ele>
        <time>2020-02-19T12:24:24.000Z</time>
      </trkpt>
      <trkpt lat="42.97481" lon="0.29614">
        <ele>1862.61</ele>
        <time>2020-02-19T12:26:30.000Z</time>
      </trkpt>
      <trkpt lat="42.97464" lon="0.29616">
        <ele>1855.8</ele>
        <time>2020-02-19T12:27:00.000Z</time>
      </trkpt>
      <trkpt lat="42.97455" lon="0.29616">
        <ele>1852.65</ele>
        <time>2020-02-19T12:27:34.000Z</time>
      </trkpt>
      <trkpt lat="42.9744" lon="0.29618">
        <ele>1845.61</ele>
        <time>2020-02-19T12:28:04.000Z</time>
      </trkpt>
      <trkpt lat="42.97422" lon="0.29611">
        <ele>1835.86</ele>
        <time>2020-02-19T12:28:34.000Z</time>
      </trkpt>
      <trkpt lat="42.97399" lon="0.29608">
        <ele>1828.85</ele>
        <time>2020-02-19T12:29:04.000Z</time>
      </trkpt>
      <trkpt lat="42.9738" lon="0.29614">
        <ele>1824.6</ele>
        <time>2020-02-19T12:29:34.000Z</time>
      </trkpt>
      <trkpt lat="42.97358" lon="0.29618">
        <ele>1819.9</ele>
        <time>2020-02-19T12:30:04.000Z</time>
      </trkpt>
      <trkpt lat="42.97336" lon="0.29629">
        <ele>1817.6</ele>
        <time>2020-02-19T12:30:34.000Z</time>
      </trkpt>
      <trkpt lat="42.97316" lon="0.29641">
        <ele>1817.65</ele>
        <time>2020-02-19T12:31:04.000Z</time>
      </trkpt>
      <trkpt lat="42.97294" lon="0.29651">
        <ele>1812.6</ele>
        <time>2020-02-19T12:31:34.000Z</time>
      </trkpt>
      <trkpt lat="42.97282" lon="0.29666">
        <ele>1808.65</ele>
        <time>2020-02-19T12:32:04.000Z</time>
      </trkpt>
      <trkpt lat="42.97274" lon="0.2968">
        <ele>1799.85</ele>
        <time>2020-02-19T12:32:34.000Z</time>
      </trkpt>
      <trkpt lat="42.9726" lon="0.29697">
        <ele>1795.6</ele>
        <time>2020-02-19T12:33:04.000Z</time>
      </trkpt>
      <trkpt lat="42.97247" lon="0.29706">
        <ele>1790.85</ele>
        <time>2020-02-19T12:33:34.000Z</time>
      </trkpt>
      <trkpt lat="42.97225" lon="0.29713">
        <ele>1783.6</ele>
        <time>2020-02-19T12:34:04.000Z</time>
      </trkpt>
      <trkpt lat="42.97206" lon="0.29718">
        <ele>1780.86</ele>
        <time>2020-02-19T12:34:34.000Z</time>
      </trkpt>
      <trkpt lat="42.97185" lon="0.29729">
        <ele>1776.6</ele>
        <time>2020-02-19T12:35:04.000Z</time>
      </trkpt>
      <trkpt lat="42.97169" lon="0.29747">
        <ele>1769.66</ele>
        <time>2020-02-19T12:35:34.000Z</time>
      </trkpt>
      <trkpt lat="42.97154" lon="0.29764">
        <ele>1764.66</ele>
        <time>2020-02-19T12:36:04.000Z</time>
      </trkpt>
      <trkpt lat="42.97136" lon="0.29776">
        <ele>1758.66</ele>
        <time>2020-02-19T12:36:34.000Z</time>
      </trkpt>
      <trkpt lat="42.97117" lon="0.29782">
        <ele>1747.67</ele>
        <time>2020-02-19T12:37:04.000Z</time>
      </trkpt>
      <trkpt lat="42.97097" lon="0.29788">
        <ele>1739.65</ele>
        <time>2020-02-19T12:37:34.000Z</time>
      </trkpt>
      <trkpt lat="42.97076" lon="0.29794">
        <ele>1732.59</ele>
        <time>2020-02-19T12:38:04.000Z</time>
      </trkpt>
      <trkpt lat="42.97068" lon="0.29799">
        <ele>1727.61</ele>
        <time>2020-02-19T12:42:11.000Z</time>
      </trkpt>
      <trkpt lat="42.97054" lon="0.29812">
        <ele>1719.86</ele>
        <time>2020-02-19T12:42:41.000Z</time>
      </trkpt>
      <trkpt lat="42.97039" lon="0.29825">
        <ele>1714.58</ele>
        <time>2020-02-19T12:43:11.000Z</time>
      </trkpt>
      <trkpt lat="42.97032" lon="0.29833">
        <ele>1710.64</ele>
        <time>2020-02-19T12:43:54.000Z</time>
      </trkpt>
      <trkpt lat="42.97009" lon="0.29847">
        <ele>1702.65</ele>
        <time>2020-02-19T12:44:24.000Z</time>
      </trkpt>
      <trkpt lat="42.97" lon="0.29853">
        <ele>1700.78</ele>
        <time>2020-02-19T12:45:02.000Z</time>
      </trkpt>
      <trkpt lat="42.96987" lon="0.29868">
        <ele>1694.17</ele>
        <time>2020-02-19T12:45:32.000Z</time>
      </trkpt>
      <trkpt lat="42.96977" lon="0.29879">
        <ele>1691.84</ele>
        <time>2020-02-19T12:46:02.000Z</time>
      </trkpt>
      <trkpt lat="42.96955" lon="0.29894">
        <ele>1686.59</ele>
        <time>2020-02-19T12:46:32.000Z</time>
      </trkpt>
      <trkpt lat="42.96935" lon="0.29908">
        <ele>1678.6</ele>
        <time>2020-02-19T12:47:02.000Z</time>
      </trkpt>
      <trkpt lat="42.96929" lon="0.29923">
        <ele>1672.86</ele>
        <time>2020-02-19T12:47:32.000Z</time>
      </trkpt>
      <trkpt lat="42.96911" lon="0.29935">
        <ele>1670.6</ele>
        <time>2020-02-19T12:48:02.000Z</time>
      </trkpt>
      <trkpt lat="42.96895" lon="0.29948">
        <ele>1663.58</ele>
        <time>2020-02-19T12:48:32.000Z</time>
      </trkpt>
      <trkpt lat="42.96892" lon="0.29964">
        <ele>1656.84</ele>
        <time>2020-02-19T12:49:02.000Z</time>
      </trkpt>
      <trkpt lat="42.96886" lon="0.29975">
        <ele>1649.09</ele>
        <time>2020-02-19T12:50:07.000Z</time>
      </trkpt>
      <trkpt lat="42.96896" lon="0.29977">
        <ele>1651.65</ele>
        <time>2020-02-19T12:53:47.000Z</time>
      </trkpt>
      <trkpt lat="42.96907" lon="0.29982">
        <ele>1647.52</ele>
        <time>2020-02-19T12:54:17.000Z</time>
      </trkpt>
      <trkpt lat="42.96916" lon="0.3">
        <ele>1643.58</ele>
        <time>2020-02-19T12:54:47.000Z</time>
      </trkpt>
      <trkpt lat="42.96926" lon="0.30003">
        <ele>1646.33</ele>
        <time>2020-02-19T12:55:58.000Z</time>
      </trkpt>
      <trkpt lat="42.96932" lon="0.30012">
        <ele>1650.52</ele>
        <time>2020-02-19T12:56:32.000Z</time>
      </trkpt>
      <trkpt lat="42.96936" lon="0.30025">
        <ele>1645.33</ele>
        <time>2020-02-19T12:57:02.000Z</time>
      </trkpt>
      <trkpt lat="42.96926" lon="0.30024">
        <ele>1629.57</ele>
        <time>2020-02-19T13:00:36.000Z</time>
      </trkpt>
      <trkpt lat="42.96918" lon="0.30027">
        <ele>1628.75</ele>
        <time>2020-02-19T13:01:14.000Z</time>
      </trkpt>
      <trkpt lat="42.96894" lon="0.30036">
        <ele>1627.6</ele>
        <time>2020-02-19T13:01:44.000Z</time>
      </trkpt>
      <trkpt lat="42.96877" lon="0.30029">
        <ele>1623.58</ele>
        <time>2020-02-19T13:02:14.000Z</time>
      </trkpt>
      <trkpt lat="42.96864" lon="0.30025">
        <ele>1626.58</ele>
        <time>2020-02-19T13:02:44.000Z</time>
      </trkpt>
      <trkpt lat="42.96853" lon="0.30032">
        <ele>1621.58</ele>
        <time>2020-02-19T13:03:14.000Z</time>
      </trkpt>
      <trkpt lat="42.9685" lon="0.30044">
        <ele>1617.91</ele>
        <time>2020-02-19T13:03:48.000Z</time>
      </trkpt>
      <trkpt lat="42.96844" lon="0.30056">
        <ele>1611.1</ele>
        <time>2020-02-19T13:04:32.000Z</time>
      </trkpt>
      <trkpt lat="42.96831" lon="0.30073">
        <ele>1598.54</ele>
        <time>2020-02-19T13:05:02.000Z</time>
      </trkpt>
      <trkpt lat="42.96818" lon="0.30076">
        <ele>1590.6</ele>
        <time>2020-02-19T13:05:32.000Z</time>
      </trkpt>
      <trkpt lat="42.9681" lon="0.30086">
        <ele>1586.27</ele>
        <time>2020-02-19T13:06:02.000Z</time>
      </trkpt>
      <trkpt lat="42.96818" lon="0.30094">
        <ele>1586.58</ele>
        <time>2020-02-19T13:06:51.000Z</time>
      </trkpt>
      <trkpt lat="42.96824" lon="0.30104">
        <ele>1581.33</ele>
        <time>2020-02-19T13:07:28.000Z</time>
      </trkpt>
      <trkpt lat="42.96834" lon="0.30126">
        <ele>1580.53</ele>
        <time>2020-02-19T13:07:58.000Z</time>
      </trkpt>
      <trkpt lat="42.96851" lon="0.30146">
        <ele>1580.77</ele>
        <time>2020-02-19T13:08:28.000Z</time>
      </trkpt>
      <trkpt lat="42.96861" lon="0.3015">
        <ele>1580.83</ele>
        <time>2020-02-19T13:08:58.000Z</time>
      </trkpt>
      <trkpt lat="42.96886" lon="0.30168">
        <ele>1574.59</ele>
        <time>2020-02-19T13:09:28.000Z</time>
      </trkpt>
      <trkpt lat="42.969" lon="0.30174">
        <ele>1571.58</ele>
        <time>2020-02-19T13:09:58.000Z</time>
      </trkpt>
      <trkpt lat="42.96893" lon="0.30187">
        <ele>1571.54</ele>
        <time>2020-02-19T13:10:28.000Z</time>
      </trkpt>
      <trkpt lat="42.969" lon="0.30196">
        <ele>1558.4</ele>
        <time>2020-02-19T13:11:58.000Z</time>
      </trkpt>
      <trkpt lat="42.96908" lon="0.30204">
        <ele>1554.13</ele>
        <time>2020-02-19T13:12:28.000Z</time>
      </trkpt>
      <trkpt lat="42.96918" lon="0.30213">
        <ele>1544.79</ele>
        <time>2020-02-19T13:13:21.000Z</time>
      </trkpt>
      <trkpt lat="42.96934" lon="0.30216">
        <ele>1541.58</ele>
        <time>2020-02-19T13:13:51.000Z</time>
      </trkpt>
      <trkpt lat="42.96939" lon="0.30227">
        <ele>1530.58</ele>
        <time>2020-02-19T13:14:33.000Z</time>
      </trkpt>
      <trkpt lat="42.96951" lon="0.30241">
        <ele>1523.57</ele>
        <time>2020-02-19T13:15:03.000Z</time>
      </trkpt>
      <trkpt lat="42.9695" lon="0.30267">
        <ele>1520.82</ele>
        <time>2020-02-19T13:15:33.000Z</time>
      </trkpt>
      <trkpt lat="42.96957" lon="0.30283">
        <ele>1518.35</ele>
        <time>2020-02-19T13:16:03.000Z</time>
      </trkpt>
      <trkpt lat="42.96971" lon="0.30303">
        <ele>1555.99</ele>
        <time>2020-02-19T13:16:36.000Z</time>
      </trkpt>
      <trkpt lat="42.96966" lon="0.30315">
        <ele>1521.71</ele>
        <time>2020-02-19T13:17:13.000Z</time>
      </trkpt>
      <trkpt lat="42.96984" lon="0.30327">
        <ele>1499.91</ele>
        <time>2020-02-19T13:17:43.000Z</time>
      </trkpt>
      <trkpt lat="42.96989" lon="0.30339">
        <ele>1490.52</ele>
        <time>2020-02-19T13:18:13.000Z</time>
      </trkpt>
      <trkpt lat="42.96985" lon="0.30351">
        <ele>1486.59</ele>
        <time>2020-02-19T13:46:55.000Z</time>
      </trkpt>
      <trkpt lat="42.96981" lon="0.30373">
        <ele>1486.63</ele>
        <time>2020-02-19T13:47:25.000Z</time>
      </trkpt>
      <trkpt lat="42.96984" lon="0.30394">
        <ele>1486.59</ele>
        <time>2020-02-19T13:47:55.000Z</time>
      </trkpt>
      <trkpt lat="42.96983" lon="0.30422">
        <ele>1486.6</ele>
        <time>2020-02-19T13:48:25.000Z</time>
      </trkpt>
      <trkpt lat="42.96992" lon="0.30447">
        <ele>1487.44</ele>
        <time>2020-02-19T13:48:55.000Z</time>
      </trkpt>
      <trkpt lat="42.97012" lon="0.3046">
        <ele>1486.59</ele>
        <time>2020-02-19T13:49:25.000Z</time>
      </trkpt>
      <trkpt lat="42.97024" lon="0.3048">
        <ele>1480.68</ele>
        <time>2020-02-19T13:49:55.000Z</time>
      </trkpt>
      <trkpt lat="42.97012" lon="0.30499">
        <ele>1474.62</ele>
        <time>2020-02-19T13:50:25.000Z</time>
      </trkpt>
      <trkpt lat="42.96998" lon="0.30526">
        <ele>1475.54</ele>
        <time>2020-02-19T13:50:55.000Z</time>
      </trkpt>
      <trkpt lat="42.96991" lon="0.30548">
        <ele>1469.69</ele>
        <time>2020-02-19T13:51:25.000Z</time>
      </trkpt>
      <trkpt lat="42.9697" lon="0.3056">
        <ele>1474.31</ele>
        <time>2020-02-19T13:51:55.000Z</time>
      </trkpt>
      <trkpt lat="42.96964" lon="0.30569">
        <ele>1471.08</ele>
        <time>2020-02-19T13:53:07.000Z</time>
      </trkpt>
      <trkpt lat="42.96943" lon="0.30593">
        <ele>1465.58</ele>
        <time>2020-02-19T13:53:37.000Z</time>
      </trkpt>
      <trkpt lat="42.96872" lon="0.30617">
        <ele>1471.55</ele>
        <time>2020-02-19T13:54:07.000Z</time>
      </trkpt>
      <trkpt lat="42.96864" lon="0.30623">
        <ele>1467.83</ele>
        <time>2020-02-19T13:55:47.000Z</time>
      </trkpt>
      <trkpt lat="42.96816" lon="0.30653">
        <ele>1460.77</ele>
        <time>2020-02-19T13:56:17.000Z</time>
      </trkpt>
      <trkpt lat="42.96798" lon="0.30659">
        <ele>1472.57</ele>
        <time>2020-02-19T13:56:47.000Z</time>
      </trkpt>
      <trkpt lat="42.96788" lon="0.30671">
        <ele>1472.6</ele>
        <time>2020-02-19T13:57:17.000Z</time>
      </trkpt>
      <trkpt lat="42.96762" lon="0.30675">
        <ele>1471.53</ele>
        <time>2020-02-19T13:57:47.000Z</time>
      </trkpt>
      <trkpt lat="42.9673" lon="0.30681">
        <ele>1483.85</ele>
        <time>2020-02-19T13:58:17.000Z</time>
      </trkpt>
      <trkpt lat="42.96704" lon="0.30692">
        <ele>1479.62</ele>
        <time>2020-02-19T13:58:47.000Z</time>
      </trkpt>
      <trkpt lat="42.96674" lon="0.30706">
        <ele>1476.42</ele>
        <time>2020-02-19T13:59:17.000Z</time>
      </trkpt>
      <trkpt lat="42.96661" lon="0.30723">
        <ele>1470.87</ele>
        <time>2020-02-19T13:59:47.000Z</time>
      </trkpt>
      <trkpt lat="42.96633" lon="0.30731">
        <ele>1474.57</ele>
        <time>2020-02-19T14:00:17.000Z</time>
      </trkpt>
      <trkpt lat="42.96609" lon="0.30744">
        <ele>1470.6</ele>
        <time>2020-02-19T14:00:47.000Z</time>
      </trkpt>
      <trkpt lat="42.96586" lon="0.30752">
        <ele>1464.63</ele>
        <time>2020-02-19T14:01:17.000Z</time>
      </trkpt>
      <trkpt lat="42.96578" lon="0.30777">
        <ele>1456.82</ele>
        <time>2020-02-19T14:01:47.000Z</time>
      </trkpt>
      <trkpt lat="42.96558" lon="0.30802">
        <ele>1449.63</ele>
        <time>2020-02-19T14:02:17.000Z</time>
      </trkpt>
      <trkpt lat="42.96533" lon="0.30824">
        <ele>1445.75</ele>
        <time>2020-02-19T14:02:47.000Z</time>
      </trkpt>
      <trkpt lat="42.96508" lon="0.30841">
        <ele>1444.55</ele>
        <time>2020-02-19T14:03:17.000Z</time>
      </trkpt>
      <trkpt lat="42.965" lon="0.30849">
        <ele>1447.24</ele>
        <time>2020-02-19T14:07:11.000Z</time>
      </trkpt>
      <trkpt lat="42.96485" lon="0.3086">
        <ele>1439.58</ele>
        <time>2020-02-19T14:07:41.000Z</time>
      </trkpt>
      <trkpt lat="42.96454" lon="0.30876">
        <ele>1436.63</ele>
        <time>2020-02-19T14:08:11.000Z</time>
      </trkpt>
      <trkpt lat="42.96426" lon="0.30882">
        <ele>1433.58</ele>
        <time>2020-02-19T14:08:41.000Z</time>
      </trkpt>
      <trkpt lat="42.96393" lon="0.30892">
        <ele>1429.38</ele>
        <time>2020-02-19T14:09:11.000Z</time>
      </trkpt>
      <trkpt lat="42.96359" lon="0.30897">
        <ele>1426.81</ele>
        <time>2020-02-19T14:09:41.000Z</time>
      </trkpt>
      <trkpt lat="42.96326" lon="0.30905">
        <ele>1425.81</ele>
        <time>2020-02-19T14:10:11.000Z</time>
      </trkpt>
      <trkpt lat="42.96293" lon="0.30916">
        <ele>1423.75</ele>
        <time>2020-02-19T14:10:41.000Z</time>
      </trkpt>
      <trkpt lat="42.96289" lon="0.30916">
        <ele>1422.51</ele>
        <time>2020-02-19T14:13:31.000Z</time>
      </trkpt>
    </trkseg>
  </trk>
</gpx>